Blythe Airport
KBLH : now visible

Airfield :











YOU CAN JOIN US ON...

 
LOGIN :

Register | Disclaimer

   EN    FR    IT 

 









Legend :    VFR   Marginal VFR   IFR   Intensive IFR   Very Intensive IFR
Visi :
Ceiling :
>= 8 km
>= 3000ft
5 to 8 km
1000 to 3000 ft
1500m to 5 km
500 to 1000 ft
800 to 1500m
200 to 500 ft
< 800m
< 200 ft
Symbols :   Thunderstorms  Fog  Heavy snow  Heavy precipitations  Wind > 20 kt






- Airport Elevation : 399 ft


KBLH - Blythe

CURRENT METAR :
  • 220252Z AUTO 35012KT 10SM CLR 17/M03 A2992 RMK AO2 SLP130 T01671028 56000

EXPIRED METARs :
  • 220152Z AUTO 36015KT 10SM SCT110 18/M04 A2992 RMK AO2 SLP130 T01831044
  • 220052Z AUTO 01016KT 10SM CLR 19/M07 A2992 RMK AO2 PK WND 36028/0009 SLP128 T01891067

TAF KBLH
Valid from the 22 at 00:00 until the 23 at 00:00 UTC


212338Z 2200/2224 36015G23KT P6SM FEW120 SCT250
FM220300 33010G18KT P6SM SCT120 BKN250
FM220700 35013G23KT 6SM BLDU SCT100 BKN250
FM221400 27006KT P6SM SCT100 BKN250
FM221600 22005KT P6SM FEW100 SCT250
FM221700 02010G24KT 6SM BR FEW100 SCT250
KZLA FIR / North America



MET'MAP, your aeronautical weather chart ! - Copyright ORBIFLY December 2007 - Disclaimer

ORBIFLY MET'MAP TEAM :

Programming & Development : Alexandra Zaïnal
Concept & original design : Baudouin d'Aumeries
Assistance for programming : Marc-Olivier Méhu
Technical & hardware support : Manuel Goepfert

Contact : metmap@orbifly.com




SOURCES & CREDITS :

   NOAA       Earth
Advisory